»·PEaware :: N8SR KVGT-KBUR

N8SR :: KVGT-KBUR

FLIGHT INFORMATION

Flight Status: Arrived
Operator: Privately registered:
United States
More flights under this callsign
Pilot: Jim C. (23814)
Aircraft: Unknown
(P28U)
More flights by this aircraft type
Origin: KVGT North Las Vegas
United States
Destination: KBUR Bob Hope-Burbank
United States
More flights between these airports :: More routes between these airports
Route: +NOTWN5 LAS V538 GFS KREME JANNY5
File this flight plan on PilotEdge
Remarks: +CW / REQUEST MIKEI ILSZ RWY8
Altitude:
(Current/Filed)
12,000ft
Speed:
(Current/Filed)
150kts
Departed: 10-Jan-20 08:18 PM
Arrived: 10-Jan-20 10:16 PM
Distance/Time
Traveled:
197nm/1:58
Distance/Time
To Go:
Arrived

Flight Plot

Page will automatically refresh every two minutes.


Map Options




Map Legend


Flown Route
Filed Route
Departure Airport
Arrival Airport
Navaid (VOR, NDB)
Fix

Horizontal Profiles

Position Reports

Time Latitude Longitude Heading Altitude Ground
Speed
10-Jan-20 19:34 36.208243 -115.197778 177 2208ft 0kts
10-Jan-20 19:35 36.208243 -115.197778 177 2208ft 0kts
10-Jan-20 19:36 36.208243 -115.197778 177 2208ft 0kts
10-Jan-20 19:37 36.208243 -115.197778 177 2208ft 0kts
10-Jan-20 19:38 36.208243 -115.197778 177 2208ft 0kts
10-Jan-20 19:39 36.208243 -115.197778 177 2208ft 0kts
10-Jan-20 19:40 36.208243 -115.197778 177 2208ft 0kts
10-Jan-20 19:41 36.208243 -115.197778 177 2208ft 0kts
10-Jan-20 19:42 36.208243 -115.197778 177 2208ft 0kts
10-Jan-20 19:43 36.208243 -115.197778 177 2208ft 0kts
10-Jan-20 19:44 36.208243 -115.197778 177 2208ft 0kts
10-Jan-20 19:45 36.208243 -115.197778 177 2208ft 0kts
10-Jan-20 19:46 36.208243 -115.197778 177 2208ft 0kts
10-Jan-20 19:47 36.208243 -115.197778 177 2208ft 0kts
10-Jan-20 19:48 36.208243 -115.197778 177 2208ft 0kts
10-Jan-20 19:49 36.208243 -115.197778 177 2208ft 0kts
10-Jan-20 19:50 36.208243 -115.197778 177 2208ft 0kts
10-Jan-20 19:51 36.208243 -115.197778 177 2208ft 0kts
10-Jan-20 19:52 36.208243 -115.197778 177 2208ft 0kts
10-Jan-20 19:53 36.208243 -115.197778 177 2208ft 0kts
10-Jan-20 19:54 36.208243 -115.197778 177 2208ft 0kts
10-Jan-20 19:55 36.208243 -115.197778 177 2208ft 0kts
10-Jan-20 19:56 36.208243 -115.197778 177 2208ft 0kts
10-Jan-20 19:57 36.208243 -115.197778 177 2208ft 0kts
10-Jan-20 19:58 36.208243 -115.197778 177 2208ft 0kts
10-Jan-20 19:59 36.208243 -115.197778 177 2208ft 0kts
10-Jan-20 20:00 36.208243 -115.197778 177 2208ft 0kts
10-Jan-20 20:01 36.208243 -115.197778 177 2208ft 0kts
10-Jan-20 20:02 36.208243 -115.197778 177 2208ft 0kts
10-Jan-20 20:03 36.208243 -115.197778 177 2208ft 0kts
10-Jan-20 20:04 36.208243 -115.197778 177 2208ft 0kts
10-Jan-20 20:05 36.208243 -115.197778 177 2208ft 0kts
10-Jan-20 20:06 36.208243 -115.197778 177 2208ft 0kts
10-Jan-20 20:07 36.208243 -115.197778 177 2208ft 0kts
10-Jan-20 20:08 36.208243 -115.197778 177 2208ft 0kts
10-Jan-20 20:09 36.208091 -115.196575 73 2208ft 0kts
10-Jan-20 20:10 36.208100 -115.196543 66 2208ft 0kts
10-Jan-20 20:11 36.210130 -115.198776 315 2208ft 15kts
10-Jan-20 20:12 36.210498 -115.199248 313 2208ft 0kts
10-Jan-20 20:13 36.212292 -115.201289 7 2208ft 7kts
10-Jan-20 20:14 36.213532 -115.203340 356 2208ft 15kts
10-Jan-20 20:15 36.214224 -115.203132 41 2208ft 7kts
10-Jan-20 20:16 36.214256 -115.202120 137 2208ft 26kts
10-Jan-20 20:17 36.197114 -115.184723 185 3045ft 90kts
10-Jan-20 20:18 36.189602 -115.213057 291 4231ft 95kts
10-Jan-20 20:19 36.207918 -115.246443 303 4540ft 139kts
10-Jan-20 20:20 36.221818 -115.241504 137 5640ft 109kts
10-Jan-20 20:22 36.196883 -115.218418 144 6315ft 124kts
10-Jan-20 20:23 36.162069 -115.205431 162 6459ft 145kts
10-Jan-20 20:24 36.125819 -115.185360 154 6270ft 136kts
10-Jan-20 20:25 36.093925 -115.166716 154 6959ft 123kts
10-Jan-20 20:26 36.060433 -115.159669 179 7654ft 124kts
10-Jan-20 20:27 36.025861 -115.159746 180 8354ft 124kts
10-Jan-20 20:28 35.991429 -115.160205 180 9053ft 124kts
10-Jan-20 20:29 35.957122 -115.160759 180 9753ft 123kts
10-Jan-20 20:30 35.923098 -115.162189 181 10452ft 122kts
10-Jan-20 20:31 35.889170 -115.163016 180 11152ft 121kts
10-Jan-20 20:32 35.855502 -115.163636 180 11852ft 121kts
10-Jan-20 20:33 35.818343 -115.164307 180 11983ft 145kts
10-Jan-20 20:34 35.777266 -115.165053 180 11981ft 149kts
10-Jan-20 20:35 35.735831 -115.165763 180 11981ft 149kts
10-Jan-20 20:36 35.694207 -115.166464 180 11981ft 149kts
10-Jan-20 20:37 35.652678 -115.167166 180 11981ft 149kts
10-Jan-20 20:38 35.611167 -115.167860 180 11981ft 149kts
10-Jan-20 20:39 35.569388 -115.168558 180 11981ft 151kts
10-Jan-20 20:40 35.527458 -115.169255 180 11981ft 151kts
10-Jan-20 20:41 35.485342 -115.169967 180 11981ft 151kts
10-Jan-20 20:42 35.443257 -115.170673 180 11981ft 151kts
10-Jan-20 20:42 35.408205 -115.171236 180 11981ft 151kts
10-Jan-20 20:44 35.359161 -115.172045 180 11981ft 151kts
10-Jan-20 20:44 35.325336 -115.172607 180 11981ft 151kts
10-Jan-20 20:45 35.291197 -115.173174 180 11981ft 151kts
10-Jan-20 20:47 35.242025 -115.173990 180 11981ft 151kts
10-Jan-20 20:47 35.221546 -115.169702 136 11433ft 79kts
10-Jan-20 20:48 35.201811 -115.171558 188 12308ft 82kts
10-Jan-20 20:49 35.163359 -115.175321 183 11980ft 158kts
10-Jan-20 20:50 35.129776 -115.200124 249 11983ft 159kts
10-Jan-20 20:51 35.116802 -115.251770 256 11980ft 159kts
10-Jan-20 20:52 35.105916 -115.304155 257 11979ft 159kts
10-Jan-20 20:53 35.095018 -115.356489 254 11981ft 159kts
10-Jan-20 20:54 35.083949 -115.409127 255 11981ft 160kts
10-Jan-20 20:55 35.073210 -115.461801 255 11981ft 160kts
10-Jan-20 20:56 35.062538 -115.514452 255 11981ft 160kts
10-Jan-20 20:57 35.051846 -115.567114 255 11981ft 159kts
10-Jan-20 20:58 35.041141 -115.619718 256 11981ft 159kts
10-Jan-20 20:59 35.030530 -115.672671 255 11981ft 161kts
10-Jan-20 21:00 35.019751 -115.725573 255 11981ft 161kts
10-Jan-20 21:01 35.008909 -115.778550 255 11981ft 161kts
10-Jan-20 21:02 34.998047 -115.831424 255 11981ft 161kts
10-Jan-20 21:03 34.987175 -115.884308 255 11981ft 161kts
10-Jan-20 21:04 34.976272 -115.937220 255 11981ft 161kts
10-Jan-20 21:05 34.965339 -115.990124 255 11981ft 161kts
10-Jan-20 21:06 34.954360 -116.043124 255 11981ft 161kts
10-Jan-20 21:07 34.943376 -116.096018 255 11981ft 161kts
10-Jan-20 21:08 34.932393 -116.148787 255 11981ft 161kts
10-Jan-20 21:09 34.921350 -116.201721 255 11981ft 161kts
10-Jan-20 21:10 34.904523 -116.252034 244 11981ft 161kts
10-Jan-20 21:11 34.885834 -116.301697 246 11981ft 161kts
10-Jan-20 21:12 34.867246 -116.351187 244 11981ft 161kts
10-Jan-20 21:13 34.848145 -116.400518 244 11981ft 161kts
10-Jan-20 21:14 34.829024 -116.449614 244 11981ft 161kts
10-Jan-20 21:15 34.809791 -116.498895 244 11981ft 161kts
10-Jan-20 21:16 34.790600 -116.547989 244 11981ft 161kts
10-Jan-20 21:17 34.783085 -116.601579 262 11981ft 161kts
10-Jan-20 21:18 34.777711 -116.655596 262 11981ft 161kts
10-Jan-20 21:19 34.772420 -116.709746 262 11981ft 160kts
10-Jan-20 21:20 34.767138 -116.763707 262 11981ft 160kts
10-Jan-20 21:21 34.761844 -116.817566 262 11981ft 160kts
10-Jan-20 21:22 34.756494 -116.871497 262 11981ft 160kts
10-Jan-20 21:23 34.751128 -116.925498 263 11981ft 160kts
10-Jan-20 21:24 34.745806 -116.979402 263 11981ft 160kts
10-Jan-20 21:25 34.740321 -117.033221 263 11981ft 161kts
10-Jan-20 21:26 34.734792 -117.087303 263 11981ft 161kts
10-Jan-20 21:27 34.729257 -117.141281 263 11981ft 161kts
10-Jan-20 21:28 34.723476 -117.195663 262 11900ft 162kts
10-Jan-20 21:29 34.717798 -117.249782 262 11899ft 161kts
10-Jan-20 21:30 34.712146 -117.303857 262 11899ft 161kts
10-Jan-20 21:31 34.706492 -117.357796 262 11899ft 161kts
10-Jan-20 21:32 34.700813 -117.411750 262 11899ft 161kts
10-Jan-20 21:33 34.695110 -117.465667 262 11899ft 161kts
10-Jan-20 21:34 34.689363 -117.519620 262 11899ft 161kts
10-Jan-20 21:35 34.683584 -117.573624 262 11899ft 161kts
10-Jan-20 21:36 34.677801 -117.627571 262 11899ft 161kts
10-Jan-20 21:37 34.672071 -117.681467 262 11899ft 161kts
10-Jan-20 21:38 34.666301 -117.735544 262 11899ft 161kts
10-Jan-20 21:39 34.660528 -117.789417 262 11899ft 161kts
10-Jan-20 21:40 34.654727 -117.843325 262 11899ft 161kts
10-Jan-20 21:41 34.648851 -117.897336 262 11899ft 161kts
10-Jan-20 21:42 34.642946 -117.951185 262 11899ft 161kts
10-Jan-20 21:43 34.636907 -118.006303 262 11540ft 172kts
10-Jan-20 21:44 34.630145 -118.064155 256 10924ft 173kts
10-Jan-20 21:45 34.618348 -118.120660 255 10259ft 169kts
10-Jan-20 21:46 34.606251 -118.175216 255 9188ft 166kts
10-Jan-20 21:47 34.594423 -118.228235 255 7995ft 161kts
10-Jan-20 21:48 34.583804 -118.275451 254 7899ft 140kts
10-Jan-20 21:49 34.573566 -118.321236 255 7899ft 140kts
10-Jan-20 21:50 34.563349 -118.366797 255 7899ft 140kts
10-Jan-20 21:51 34.553106 -118.412515 255 7899ft 140kts
10-Jan-20 21:52 34.528723 -118.447416 215 7898ft 140kts
10-Jan-20 21:53 34.497766 -118.475661 227 7899ft 140kts
10-Jan-20 21:54 34.471041 -118.511902 229 7583ft 153kts
10-Jan-20 21:55 34.442682 -118.550777 229 6922ft 153kts
10-Jan-20 21:56 34.416022 -118.587227 229 6898ft 140kts
10-Jan-20 21:57 34.390246 -118.622494 229 6899ft 139kts
10-Jan-20 21:58 34.364734 -118.657341 228 6899ft 139kts
10-Jan-20 21:59 34.338989 -118.692470 228 6899ft 139kts
10-Jan-20 22:00 34.313268 -118.727531 228 6899ft 139kts
10-Jan-20 22:01 34.287472 -118.762658 228 6899ft 139kts
10-Jan-20 22:02 34.256975 -118.772710 122 6818ft 144kts
10-Jan-20 22:03 34.243585 -118.725887 113 6018ft 156kts
10-Jan-20 22:04 34.227897 -118.682606 113 5217ft 127kts
10-Jan-20 22:05 34.214741 -118.646605 114 4310ft 114kts
10-Jan-20 22:06 34.202855 -118.612142 98 3584ft 98kts
10-Jan-20 22:07 34.200517 -118.577843 92 2925ft 101kts
10-Jan-20 22:08 34.200257 -118.548489 90 2905ft 91kts
10-Jan-20 22:09 34.199746 -118.514976 87 2899ft 102kts
10-Jan-20 22:10 34.199870 -118.480698 90 2909ft 102kts
10-Jan-20 22:11 34.199278 -118.446312 91 2709ft 101kts
10-Jan-20 22:12 34.198629 -118.415886 90 2098ft 87kts
10-Jan-20 22:13 34.198253 -118.388548 91 1390ft 80kts
10-Jan-20 22:14 34.197926 -118.362860 91 779ft 48kts
10-Jan-20 22:15 34.198620 -118.360261 354 779ft 0kts
10-Jan-20 22:16 34.199002 -118.360264 1 779ft 5kts
10-Jan-20 22:17 34.199528 -118.359372 180 779ft 0kts
10-Jan-20 22:18 34.199528 -118.359372 180 779ft 0kts
10-Jan-20 22:19 34.199528 -118.359373 178 779ft 0kts
10-Jan-20 22:20 34.199528 -118.359373 178 779ft 0kts

Navigation Log

Ident Type
Flight plan parsing failed, navigation log unavailable